sensor_id;sensor_type;location;lat;lon;timestamp;pressure;altitude;pressure_sealevel;temperature;humidity
44531;BME280;30240;47.418;0.700;2024-01-16T07:13:48;99825.77514648438;;;-1.99;86.4
44531;BME280;30240;47.418;0.700;2024-01-16T07:16:13;99825.77514648438;;;-1.99;86.4
44531;BME280;30240;47.418;0.700;2024-01-16T07:18:38;99838.22021484375;;;-1.96;86.4
44531;BME280;30240;47.418;0.700;2024-01-16T07:21:04;99840.25268554688;;;-1.95;86.29
44531;BME280;30240;47.418;0.700;2024-01-16T07:23:29;99833.9111328125;;;-1.98;86.24
44531;BME280;30240;47.418;0.700;2024-01-16T07:25:55;99827.20336914062;;;-1.93;86.27
44531;BME280;30240;47.418;0.700;2024-01-16T07:28:18;99827.20336914062;;;-1.93;86.27
44531;BME280;30240;47.418;0.700;2024-01-16T07:30:44;99817.99926757812;;;-1.85;86.31
44531;BME280;30240;47.418;0.700;2024-01-16T07:33:08;99831.57958984375;;;-1.88;86.13
44531;BME280;30240;47.418;0.700;2024-01-16T07:35:34;99825.732421875;;;-1.85;86.04
44531;BME280;30240;47.418;0.700;2024-01-16T07:37:58;99835.8154296875;;;-1.86;85.98
44531;BME280;30240;47.418;0.700;2024-01-16T07:40:23;99835.8154296875;;;-1.86;85.98
44531;BME280;30240;47.418;0.700;2024-01-16T07:42:49;99843.89038085938;;;-1.83;85.91
44531;BME280;30240;47.418;0.700;2024-01-16T07:45:14;99845.79467773438;;;-1.71;85.85
44531;BME280;30240;47.418;0.700;2024-01-16T07:47:38;99859.12475585938;;;-1.72;85.64
44531;BME280;30240;47.418;0.700;2024-01-16T07:50:04;99856.23168945312;;;-1.58;85.54
44531;BME280;30240;47.418;0.700;2024-01-16T07:52:28;99856.23168945312;;;-1.58;85.54
44531;BME280;30240;47.418;0.700;2024-01-16T07:54:53;99861.74926757812;;;-1.48;85.14
44531;BME280;30240;47.418;0.700;2024-01-16T07:57:18;99857.31201171875;;;-1.43;84.87
44531;BME280;30240;47.418;0.700;2024-01-16T07:59:43;99856.5673828125;;;-1.57;84.8
44531;BME280;30240;47.418;0.700;2024-01-16T08:02:08;99855.27954101562;;;-1.16;84.63
44531;BME280;30240;47.418;0.700;2024-01-16T08:04:34;99855.27954101562;;;-1.16;84.63
44531;BME280;30240;47.418;0.700;2024-01-16T08:06:59;99853.48510742188;;;-0.94;84.02
44531;BME280;30240;47.418;0.700;2024-01-16T08:09:23;99841.35131835938;;;-1.06;83.58
44531;BME280;30240;47.418;0.700;2024-01-16T08:11:49;99841.3818359375;;;-1.28;83.59
44531;BME280;30240;47.418;0.700;2024-01-16T08:14:13;99840.70434570312;;;-0.88;83.37
44531;BME280;30240;47.418;0.700;2024-01-16T08:16:38;99840.70434570312;;;-0.88;83.37
44531;BME280;30240;47.418;0.700;2024-01-16T08:19:03;99821.86889648438;;;-0.5;82.71
44531;BME280;30240;47.418;0.700;2024-01-16T08:21:29;99811.1083984375;;;-0.18;82.36
44531;BME280;30240;47.418;0.700;2024-01-16T08:23:54;99793.60961914062;;;0.02;81.97
44531;BME280;30240;47.418;0.700;2024-01-16T08:26:19;99766.5283203125;;;0.32;81.15
44531;BME280;30240;47.418;0.700;2024-01-16T08:28:44;99766.5283203125;;;0.32;81.15
44531;BME280;30240;47.418;0.700;2024-01-16T08:31:09;99749.76806640625;;;0.83;80.31
44531;BME280;30240;47.418;0.700;2024-01-16T08:33:33;99725.03051757812;;;1.0;80.15
44531;BME280;30240;47.418;0.700;2024-01-16T08:35:59;99781.3720703125;;;1.45;79.15
44531;BME280;30240;47.418;0.700;2024-01-16T08:38:24;99807.94677734375;;;1.31;78.27
44531;BME280;30240;47.418;0.700;2024-01-16T08:40:49;99805.52978515625;;;1.53;78.53
44531;BME280;30240;47.418;0.700;2024-01-16T08:43:14;99805.52978515625;;;1.53;78.53
44531;BME280;30240;47.418;0.700;2024-01-16T08:45:39;99806.74438476562;;;1.53;78.39
44531;BME280;30240;47.418;0.700;2024-01-16T08:48:04;99801.11083984375;;;1.39;79.01
44531;BME280;30240;47.418;0.700;2024-01-16T08:50:28;99798.1689453125;;;1.63;78.08
44531;BME280;30240;47.418;0.700;2024-01-16T08:52:53;99796.76513671875;;;1.25;78.46
44531;BME280;30240;47.418;0.700;2024-01-16T08:55:19;99796.76513671875;;;1.25;78.46
44531;BME280;30240;47.418;0.700;2024-01-16T08:57:44;99797.85766601562;;;0.79;79.17
44531;BME280;30240;47.418;0.700;2024-01-16T09:00:09;99794.3603515625;;;0.49;79.8
44531;BME280;30240;47.418;0.700;2024-01-16T09:02:33;99798.88916015625;;;0.41;80.43
44531;BME280;30240;47.418;0.700;2024-01-16T09:04:59;99802.05688476562;;;0.56;80.78
44531;BME280;30240;47.418;0.700;2024-01-16T09:07:24;99802.05688476562;;;0.56;80.78
44531;BME280;30240;47.418;0.700;2024-01-16T09:09:48;99784.18579101562;;;1.67;78.42
44531;BME280;30240;47.418;0.700;2024-01-16T09:12:14;99794.64111328125;;;2.4;77.16
44531;BME280;30240;47.418;0.700;2024-01-16T09:14:38;99796.37451171875;;;2.21;76.05
44531;BME280;30240;47.418;0.700;2024-01-16T09:17:03;99785.07690429688;;;2.61;75.92
44531;BME280;30240;47.418;0.700;2024-01-16T09:19:29;99785.07690429688;;;2.61;75.92
44531;BME280;30240;47.418;0.700;2024-01-16T09:21:54;99789.90478515625;;;2.62;75.16
44531;BME280;30240;47.418;0.700;2024-01-16T09:24:19;99798.90747070312;;;2.47;76.01
44531;BME280;30240;47.418;0.700;2024-01-16T09:26:44;99800.8056640625;;;2.62;75.27
44531;BME280;30240;47.418;0.700;2024-01-16T09:29:09;99796.66137695312;;;2.26;75.2
44531;BME280;30240;47.418;0.700;2024-01-16T09:31:33;99796.66137695312;;;2.26;75.2
44531;BME280;30240;47.418;0.700;2024-01-16T09:33:59;99792.85888671875;;;3.16;75.8
44531;BME280;30240;47.418;0.700;2024-01-16T09:36:24;99789.73388671875;;;3.75;74.06
44531;BME280;30240;47.418;0.700;2024-01-16T09:38:49;99796.53930664062;;;3.58;72.71
44531;BME280;30240;47.418;0.700;2024-01-16T09:41:14;99799.84130859375;;;3.33;73.74
44531;BME280;30240;47.418;0.700;2024-01-16T09:43:39;99799.84130859375;;;3.33;73.74
44531;BME280;30240;47.418;0.700;2024-01-16T09:46:04;99805.23681640625;;;3.58;73.74
44531;BME280;30240;47.418;0.700;2024-01-16T09:48:30;99802.01416015625;;;4.13;73.21
44531;BME280;30240;47.418;0.700;2024-01-16T09:50:54;99796.29516601562;;;3.71;72.78
44531;BME280;30240;47.418;0.700;2024-01-16T09:53:19;99801.416015625;;;4.48;73.38
44531;BME280;30240;47.418;0.700;2024-01-16T09:55:44;99801.416015625;;;4.48;73.38
44531;BME280;30240;47.418;0.700;2024-01-16T09:58:09;99802.3681640625;;;3.51;73.44
44531;BME280;30240;47.418;0.700;2024-01-16T10:00:34;99800.15869140625;;;3.24;73.33
44531;BME280;30240;47.418;0.700;2024-01-16T10:02:59;99794.03076171875;;;3.72;73.8
44531;BME280;30240;47.418;0.700;2024-01-16T10:05:24;99791.44287109375;;;3.33;73.97
44531;BME280;30240;47.418;0.700;2024-01-16T10:07:49;99791.44287109375;;;3.33;73.97
44531;BME280;30240;47.418;0.700;2024-01-16T10:10:14;99788.671875;;;3.31;74.31
44531;BME280;30240;47.418;0.700;2024-01-16T10:12:39;99796.3623046875;;;3.99;73.62
44531;BME280;30240;47.418;0.700;2024-01-16T10:15:05;99778.47900390625;;;4.22;72.04
44531;BME280;30240;47.418;0.700;2024-01-16T10:17:37;99774.3896484375;;;4.03;73.01
44531;BME280;30240;47.418;0.700;2024-01-16T10:19:54;99770.01342773438;;;3.26;73.88
44531;BME280;30240;47.418;0.700;2024-01-16T10:22:20;99770.01342773438;;;3.26;73.88
44531;BME280;30240;47.418;0.700;2024-01-16T10:24:45;99769.11010742188;;;2.49;75.36
44531;BME280;30240;47.418;0.700;2024-01-16T10:27:08;99775.05493164062;;;3.1;76.62
44531;BME280;30240;47.418;0.700;2024-01-16T10:29:34;99768.93920898438;;;3.24;75.21
44531;BME280;30240;47.418;0.700;2024-01-16T10:31:59;99752.23388671875;;;2.77;75.38
44531;BME280;30240;47.418;0.700;2024-01-16T10:34:24;99752.23388671875;;;2.77;75.38
44531;BME280;30240;47.418;0.700;2024-01-16T10:36:49;99745.8251953125;;;3.41;75.01
44531;BME280;30240;47.418;0.700;2024-01-16T10:39:14;99738.67797851562;;;3.31;74.66
44531;BME280;30240;47.418;0.700;2024-01-16T10:41:39;99738.8427734375;;;3.64;74.25
44531;BME280;30240;47.418;0.700;2024-01-16T10:44:04;99743.1884765625;;;4.44;73.57
44531;BME280;30240;47.418;0.700;2024-01-16T10:46:29;99743.1884765625;;;4.44;73.57
44531;BME280;30240;47.418;0.700;2024-01-16T10:48:59;99732.56225585938;;;3.38;73.17
44531;BME280;30240;47.418;0.700;2024-01-16T10:51:19;99740.673828125;;;4.01;74.13
44531;BME280;30240;47.418;0.700;2024-01-16T10:53:44;99741.90673828125;;;4.22;74.15
44531;BME280;30240;47.418;0.700;2024-01-16T10:56:10;99739.54467773438;;;3.93;74.27
44531;BME280;30240;47.418;0.700;2024-01-16T10:58:36;99739.54467773438;;;3.93;74.27
44531;BME280;30240;47.418;0.700;2024-01-16T11:01:01;99742.3583984375;;;3.43;75.17
44531;BME280;30240;47.418;0.700;2024-01-16T11:03:26;99752.25219726562;;;3.16;75.56
44531;BME280;30240;47.418;0.700;2024-01-16T11:05:49;99762.18872070312;;;1.97;76.7
44531;BME280;30240;47.418;0.700;2024-01-16T11:08:14;99764.59350585938;;;1.91;78.57
44531;BME280;30240;47.418;0.700;2024-01-16T11:10:39;99764.59350585938;;;1.91;78.57
44531;BME280;30240;47.418;0.700;2024-01-16T11:13:04;99756.7138671875;;;2.26;78.85
44531;BME280;30240;47.418;0.700;2024-01-16T11:15:29;99757.39135742188;;;1.67;78.1
44531;BME280;30240;47.418;0.700;2024-01-16T11:17:55;99757.6904296875;;;1.7;79.48
44531;BME280;30240;47.418;0.700;2024-01-16T11:20:19;99747.65625;;;1.4;78.84
44531;BME280;30240;47.418;0.700;2024-01-16T11:22:44;99747.65625;;;1.4;78.84
44531;BME280;30240;47.418;0.700;2024-01-16T11:25:10;99755.46875;;;1.11;80.09
44531;BME280;30240;47.418;0.700;2024-01-16T11:27:34;99784.619140625;;;1.4;80.3
44531;BME280;30240;47.418;0.700;2024-01-16T11:29:58;99783.23364257812;;;1.11;78.88
44531;BME280;30240;47.418;0.700;2024-01-16T11:32:33;99784.31396484375;;;0.24;81.22
44531;BME280;30240;47.418;0.700;2024-01-16T11:34:52;99784.31396484375;;;0.24;81.22
44531;BME280;30240;47.418;0.700;2024-01-16T11:37:15;99756.17065429688;;;1.55;80.51
44531;BME280;30240;47.418;0.700;2024-01-16T11:39:39;99748.5107421875;;;2.34;79.67
44531;BME280;30240;47.418;0.700;2024-01-16T11:42:04;99736.9384765625;;;2.5;77.02
44531;BME280;30240;47.418;0.700;2024-01-16T11:44:41;99749.072265625;;;3.26;76.59
44531;BME280;30240;47.418;0.700;2024-01-16T11:47:01;99732.2998046875;;;2.91;76.93
44531;BME280;30240;47.418;0.700;2024-01-16T11:49:19;99732.2998046875;;;2.91;76.93
44531;BME280;30240;47.418;0.700;2024-01-16T11:51:44;99709.51538085938;;;2.73;77.07
44531;BME280;30240;47.418;0.700;2024-01-16T11:54:09;99691.49780273438;;;2.96;78.0
44531;BME280;30240;47.418;0.700;2024-01-16T11:56:42;99691.76025390625;;;3.68;76.73
44531;BME280;30240;47.418;0.700;2024-01-16T11:59:42;99684.50927734375;;;3.48;74.81
44531;BME280;30240;47.418;0.700;2024-01-16T11:59:57;99684.50927734375;;;3.48;74.81
44531;BME280;30240;47.418;0.700;2024-01-16T12:01:25;99684.50927734375;;;3.48;74.81
44531;BME280;30240;47.418;0.700;2024-01-16T12:04:01;99673.79760742188;;;3.81;75.21
44531;BME280;30240;47.418;0.700;2024-01-16T12:06:16;99678.45458984375;;;3.58;76.8
44531;BME280;30240;47.418;0.700;2024-01-16T12:08:39;99684.23461914062;;;4.53;74.27
44531;BME280;30240;47.418;0.700;2024-01-16T12:11:04;99653.90625;;;3.59;74.11
44531;BME280;30240;47.418;0.700;2024-01-16T12:13:29;99653.90625;;;3.59;74.11
44531;BME280;30240;47.418;0.700;2024-01-16T12:15:59;99659.73510742188;;;4.01;74.04
44531;BME280;30240;47.418;0.700;2024-01-16T12:18:19;99643.42041015625;;;4.11;75.11
44531;BME280;30240;47.418;0.700;2024-01-16T12:20:44;99620.61157226562;;;3.58;74.33
44531;BME280;30240;47.418;0.700;2024-01-16T12:23:09;99618.85986328125;;;4.01;75.94
44531;BME280;30240;47.418;0.700;2024-01-16T12:25:34;99618.85986328125;;;4.01;75.94
44531;BME280;30240;47.418;0.700;2024-01-16T12:28:00;99606.9091796875;;;4.3;75.8
44531;BME280;30240;47.418;0.700;2024-01-16T12:30:25;99605.46875;;;4.4;74.67
44531;BME280;30240;47.418;0.700;2024-01-16T12:32:49;99577.64892578125;;;5.5;73.22
44531;BME280;30240;47.418;0.700;2024-01-16T12:35:19;99591.21704101562;;;5.93;71.59
44531;BME280;30240;47.418;0.700;2024-01-16T12:37:39;99591.21704101562;;;5.93;71.59
44531;BME280;30240;47.418;0.700;2024-01-16T12:40:05;99576.77612304688;;;4.41;73.32
44531;BME280;30240;47.418;0.700;2024-01-16T12:42:29;99566.31469726562;;;5.49;73.1
44531;BME280;30240;47.418;0.700;2024-01-16T12:44:54;99559.96704101562;;;4.52;73.89
44531;BME280;30240;47.418;0.700;2024-01-16T12:47:19;99559.08813476562;;;5.47;73.26
44531;BME280;30240;47.418;0.700;2024-01-16T12:49:44;99559.08813476562;;;5.47;73.26
44531;BME280;30240;47.418;0.700;2024-01-16T12:52:14;99564.37377929688;;;4.44;75.25
44531;BME280;30240;47.418;0.700;2024-01-16T12:54:34;99566.34521484375;;;3.45;76.45
44531;BME280;30240;47.418;0.700;2024-01-16T12:56:59;99561.9384765625;;;3.87;76.9
44531;BME280;30240;47.418;0.700;2024-01-16T12:59:27;99564.56298828125;;;3.58;75.35
44531;BME280;30240;47.418;0.700;2024-01-16T13:01:48;99564.56298828125;;;3.58;75.35
44531;BME280;30240;47.418;0.700;2024-01-16T13:04:16;99558.61206054688;;;3.5;77.74
44531;BME280;30240;47.418;0.700;2024-01-16T13:06:39;99558.87451171875;;;4.35;76.62
44531;BME280;30240;47.418;0.700;2024-01-16T13:09:05;99547.6806640625;;;2.93;77.55
44531;BME280;30240;47.418;0.700;2024-01-16T13:11:29;99536.13891601562;;;2.36;79.71
44531;BME280;30240;47.418;0.700;2024-01-16T13:14:01;99536.13891601562;;;2.36;79.71
44531;BME280;30240;47.418;0.700;2024-01-16T13:16:19;99552.5146484375;;;2.91;79.05
44531;BME280;30240;47.418;0.700;2024-01-16T13:18:43;99549.15771484375;;;2.64;79.04
44531;BME280;30240;47.418;0.700;2024-01-16T13:21:09;99549.11499023438;;;3.02;78.31
44531;BME280;30240;47.418;0.700;2024-01-16T13:23:34;99540.10009765625;;;3.09;78.59
44531;BME280;30240;47.418;0.700;2024-01-16T13:25:59;99527.7587890625;;;2.65;78.6
44531;BME280;30240;47.418;0.700;2024-01-16T13:28:23;99527.7587890625;;;2.65;78.6
44531;BME280;30240;47.418;0.700;2024-01-16T13:30:49;99528.40576171875;;;2.58;79.28
44531;BME280;30240;47.418;0.700;2024-01-16T13:33:14;99524.93896484375;;;2.47;79.21
44531;BME280;30240;47.418;0.700;2024-01-16T13:35:40;99531.640625;;;2.85;79.45
44531;BME280;30240;47.418;0.700;2024-01-16T13:38:04;99522.71728515625;;;3.03;78.34
44531;BME280;30240;47.418;0.700;2024-01-16T13:40:29;99522.71728515625;;;3.03;78.34
44531;BME280;30240;47.418;0.700;2024-01-16T13:42:53;99518.5302734375;;;2.16;79.71
44531;BME280;30240;47.418;0.700;2024-01-16T13:45:19;99524.24926757812;;;1.99;80.51
44531;BME280;30240;47.418;0.700;2024-01-16T13:47:44;99524.44458007812;;;1.93;80.34
44531;BME280;30240;47.418;0.700;2024-01-16T13:50:09;99519.84252929688;;;2.26;80.73
44531;BME280;30240;47.418;0.700;2024-01-16T13:52:35;99519.84252929688;;;2.26;80.73
44531;BME280;30240;47.418;0.700;2024-01-16T13:54:59;99508.203125;;;1.59;80.72
44531;BME280;30240;47.418;0.700;2024-01-16T13:57:24;99499.8779296875;;;1.73;81.21
44531;BME280;30240;47.418;0.700;2024-01-16T13:59:49;99493.02978515625;;;1.57;81.15
44531;BME280;30240;47.418;0.700;2024-01-16T14:02:14;99495.8740234375;;;1.81;81.35
44531;BME280;30240;47.418;0.700;2024-01-16T14:04:39;99495.8740234375;;;1.81;81.35
44531;BME280;30240;47.418;0.700;2024-01-16T14:07:03;99491.15600585938;;;1.66;81.37
44531;BME280;30240;47.418;0.700;2024-01-16T14:09:32;99498.41918945312;;;1.59;81.23
44531;BME280;30240;47.418;0.700;2024-01-16T14:11:53;99501.83715820312;;;1.27;81.3
44531;BME280;30240;47.418;0.700;2024-01-16T14:14:19;99505.48706054688;;;1.15;81.8
44531;BME280;30240;47.418;0.700;2024-01-16T14:16:45;99505.48706054688;;;1.15;81.8
44531;BME280;30240;47.418;0.700;2024-01-16T14:19:09;99505.7373046875;;;1.35;81.89
44531;BME280;30240;47.418;0.700;2024-01-16T14:21:33;99509.73510742188;;;1.24;81.72
44531;BME280;30240;47.418;0.700;2024-01-16T14:23:58;99518.25561523438;;;1.81;81.59
44531;BME280;30240;47.418;0.700;2024-01-16T14:26:23;99527.32543945312;;;1.31;81.75
44531;BME280;30240;47.418;0.700;2024-01-16T14:28:49;99527.32543945312;;;1.31;81.75
44531;BME280;30240;47.418;0.700;2024-01-16T14:31:13;99529.54711914062;;;0.79;83.12
44531;BME280;30240;47.418;0.700;2024-01-16T14:33:39;99527.0751953125;;;0.89;83.77
44531;BME280;30240;47.418;0.700;2024-01-16T14:36:04;99528.14331054688;;;0.59;83.85
44531;BME280;30240;47.418;0.700;2024-01-16T14:38:28;99529.541015625;;;0.52;84.38
44531;BME280;30240;47.418;0.700;2024-01-16T14:40:54;99529.541015625;;;0.52;84.38
44531;BME280;30240;47.418;0.700;2024-01-16T14:43:19;99529.11987304688;;;0.24;84.74
44531;BME280;30240;47.418;0.700;2024-01-16T14:45:44;99515.81420898438;;;0.21;85.29
44531;BME280;30240;47.418;0.700;2024-01-16T14:48:09;99513.89770507812;;;0.1;85.59
44531;BME280;30240;47.418;0.700;2024-01-16T14:50:34;99505.52978515625;;;0.11;85.86
44531;BME280;30240;47.418;0.700;2024-01-16T14:52:58;99499.18212890625;;;-0.14;86.07
44531;BME280;30240;47.418;0.700;2024-01-16T14:55:24;99499.18212890625;;;-0.14;86.07
44531;BME280;30240;47.418;0.700;2024-01-16T14:57:48;99500.341796875;;;0.24;86.32
44531;BME280;30240;47.418;0.700;2024-01-16T15:00:14;99502.79541015625;;;0.28;85.94
44531;BME280;30240;47.418;0.700;2024-01-16T15:02:39;99502.81372070312;;;0.03;86.05
44531;BME280;30240;47.418;0.700;2024-01-16T15:05:04;99498.06518554688;;;-0.21;86.33
44531;BME280;30240;47.418;0.700;2024-01-16T15:07:28;99498.06518554688;;;-0.21;86.33
44531;BME280;30240;47.418;0.700;2024-01-16T15:09:53;99494.95239257812;;;-0.28;86.71
44531;BME280;30240;47.418;0.700;2024-01-16T15:12:19;99498.29711914062;;;-0.18;87.14
44531;BME280;30240;47.418;0.700;2024-01-16T15:14:43;99493.1884765625;;;-0.35;87.39
44531;BME280;30240;47.418;0.700;2024-01-16T15:17:08;99493.69506835938;;;-0.42;87.53
44531;BME280;30240;47.418;0.700;2024-01-16T15:19:36;99493.69506835938;;;-0.42;87.53
44531;BME280;30240;47.418;0.700;2024-01-16T15:21:58;99489.39819335938;;;-0.23;87.77
44531;BME280;30240;47.418;0.700;2024-01-16T15:24:23;99490.185546875;;;-0.33;87.81
44531;BME280;30240;47.418;0.700;2024-01-16T15:26:48;99487.83569335938;;;-0.54;87.96
44531;BME280;30240;47.418;0.700;2024-01-16T15:29:13;99495.263671875;;;-0.18;88.22
44531;BME280;30240;47.418;0.700;2024-01-16T15:31:38;99495.263671875;;;-0.18;88.22
44531;BME280;30240;47.418;0.700;2024-01-16T15:34:03;99498.45581054688;;;-0.38;88.25
44531;BME280;30240;47.418;0.700;2024-01-16T15:36:28;99496.9970703125;;;-0.26;88.47
44531;BME280;30240;47.418;0.700;2024-01-16T15:38:53;99498.84643554688;;;-0.4;88.62
44531;BME280;30240;47.418;0.700;2024-01-16T15:41:18;99500.23193359375;;;-0.39;88.66
44531;BME280;30240;47.418;0.700;2024-01-16T15:43:43;99500.23193359375;;;-0.39;88.66
44531;BME280;30240;47.418;0.700;2024-01-16T15:46:09;99496.533203125;;;-0.15;88.76
44531;BME280;30240;47.418;0.700;2024-01-16T15:48:33;99487.04833984375;;;-0.35;88.81
44531;BME280;30240;47.418;0.700;2024-01-16T15:50:59;99478.76586914062;;;-0.26;89.03
44531;BME280;30240;47.418;0.700;2024-01-16T15:53:23;99479.5166015625;;;-0.39;89.08
44531;BME280;30240;47.418;0.700;2024-01-16T15:55:49;99479.5166015625;;;-0.39;89.08
44531;BME280;30240;47.418;0.700;2024-01-16T15:58:13;99466.9677734375;;;-0.35;89.19
44531;BME280;30240;47.418;0.700;2024-01-16T16:00:39;99465.53955078125;;;-0.29;89.31
44531;BME280;30240;47.418;0.700;2024-01-16T16:03:04;99462.82958984375;;;-0.3;89.37
44531;BME280;30240;47.418;0.700;2024-01-16T16:05:29;99466.21704101562;;;-0.28;89.41
44531;BME280;30240;47.418;0.700;2024-01-16T16:07:53;99466.21704101562;;;-0.28;89.41
44531;BME280;30240;47.418;0.700;2024-01-16T16:10:19;99450.23193359375;;;-0.12;89.45
44531;BME280;30240;47.418;0.700;2024-01-16T16:12:43;99449.92065429688;;;-0.15;89.33
44531;BME280;30240;47.418;0.700;2024-01-16T16:15:09;99452.54516601562;;;-0.17;89.31
44531;BME280;30240;47.418;0.700;2024-01-16T16:17:33;99462.35961914062;;;-0.1;89.29
44531;BME280;30240;47.418;0.700;2024-01-16T16:19:58;99462.35961914062;;;-0.1;89.29
44531;BME280;30240;47.418;0.700;2024-01-16T16:22:23;99478.09448242188;;;-0.03;89.23
44531;BME280;30240;47.418;0.700;2024-01-16T16:24:49;99476.7333984375;;;0.07;89.14
44531;BME280;30240;47.418;0.700;2024-01-16T16:27:23;99472.8271484375;;;0.36;89.08
44531;BME280;30240;47.418;0.700;2024-01-16T16:29:38;99466.65649414062;;;0.1;88.7
44531;BME280;30240;47.418;0.700;2024-01-16T16:32:04;99463.12255859375;;;0.07;88.68
44531;BME280;30240;47.418;0.700;2024-01-16T16:34:28;99463.12255859375;;;0.07;88.68
44531;BME280;30240;47.418;0.700;2024-01-16T16:36:54;99458.00170898438;;;0.0;88.69
44531;BME280;30240;47.418;0.700;2024-01-16T16:39:18;99452.64282226562;;;0.24;88.81
44531;BME280;30240;47.418;0.700;2024-01-16T16:41:44;99444.39697265625;;;0.17;88.66
44531;BME280;30240;47.418;0.700;2024-01-16T16:44:09;99446.32568359375;;;0.13;88.6
44531;BME280;30240;47.418;0.700;2024-01-16T16:46:34;99446.32568359375;;;0.13;88.6
44531;BME280;30240;47.418;0.700;2024-01-16T16:48:59;99441.68701171875;;;0.09;88.66
44531;BME280;30240;47.418;0.700;2024-01-16T16:51:24;99441.09497070312;;;0.03;88.7
44531;BME280;30240;47.418;0.700;2024-01-16T16:53:49;99434.8388671875;;;0.07;88.74
44531;BME280;30240;47.418;0.700;2024-01-16T16:56:15;99424.38354492188;;;0.05;88.79
44531;BME280;30240;47.418;0.700;2024-01-16T16:58:39;99424.38354492188;;;0.05;88.79
44531;BME280;30240;47.418;0.700;2024-01-16T17:01:03;99425.14038085938;;;0.11;88.88
44531;BME280;30240;47.418;0.700;2024-01-16T17:03:28;99420.33081054688;;;0.14;88.85
44531;BME280;30240;47.418;0.700;2024-01-16T17:05:53;99416.21704101562;;;0.17;88.77
44531;BME280;30240;47.418;0.700;2024-01-16T17:08:20;99419.86083984375;;;0.18;88.76
44531;BME280;30240;47.418;0.700;2024-01-16T17:10:43;99419.86083984375;;;0.18;88.76
44531;BME280;30240;47.418;0.700;2024-01-16T17:13:09;99416.68701171875;;;0.27;88.74
44531;BME280;30240;47.418;0.700;2024-01-16T17:15:33;99413.72680664062;;;0.24;88.66
44531;BME280;30240;47.418;0.700;2024-01-16T17:17:58;99393.68896484375;;;0.25;88.65
44531;BME280;30240;47.418;0.700;2024-01-16T17:20:23;99387.73193359375;;;0.18;88.64
44531;BME280;30240;47.418;0.700;2024-01-16T17:22:48;99387.73193359375;;;0.18;88.64
44531;BME280;30240;47.418;0.700;2024-01-16T17:25:13;99375.9033203125;;;0.27;88.63
44531;BME280;30240;47.418;0.700;2024-01-16T17:27:38;99368.1884765625;;;0.34;88.61
44531;BME280;30240;47.418;0.700;2024-01-16T17:30:04;99360.35766601562;;;0.24;88.52
44531;BME280;30240;47.418;0.700;2024-01-16T17:32:28;99345.93505859375;;;0.25;88.58
44531;BME280;30240;47.418;0.700;2024-01-16T17:34:53;99345.93505859375;;;0.25;88.58
44531;BME280;30240;47.418;0.700;2024-01-16T17:37:18;99334.4970703125;;;0.17;88.65
44531;BME280;30240;47.418;0.700;2024-01-16T17:39:45;99334.28344726562;;;0.25;88.71
44531;BME280;30240;47.418;0.700;2024-01-16T17:42:08;99331.06079101562;;;0.25;88.63
44531;BME280;30240;47.418;0.700;2024-01-16T17:44:33;99329.09545898438;;;0.23;88.63
44531;BME280;30240;47.418;0.700;2024-01-16T17:46:59;99329.09545898438;;;0.23;88.63
44531;BME280;30240;47.418;0.700;2024-01-16T17:49:24;99325.67138671875;;;0.17;88.79
44531;BME280;30240;47.418;0.700;2024-01-16T17:51:48;99324.84130859375;;;0.21;88.81
44531;BME280;30240;47.418;0.700;2024-01-16T17:54:14;99323.35815429688;;;0.23;88.81
44531;BME280;30240;47.418;0.700;2024-01-16T17:56:38;99320.73364257812;;;0.32;88.83
44531;BME280;30240;47.418;0.700;2024-01-16T17:59:04;99317.69409179688;;;0.32;88.75
44531;BME280;30240;47.418;0.700;2024-01-16T18:01:29;99317.69409179688;;;0.32;88.75
44531;BME280;30240;47.418;0.700;2024-01-16T18:03:53;99312.87231445312;;;0.34;88.71
44531;BME280;30240;47.418;0.700;2024-01-16T18:06:19;99310.38818359375;;;0.44;88.69
44531;BME280;30240;47.418;0.700;2024-01-16T18:08:44;99308.70971679688;;;0.3;88.63
44531;BME280;30240;47.418;0.700;2024-01-16T18:11:09;99306.38427734375;;;0.36;88.64
44531;BME280;30240;47.418;0.700;2024-01-16T18:13:34;99306.38427734375;;;0.36;88.64
44531;BME280;30240;47.418;0.700;2024-01-16T18:15:59;99299.12719726562;;;0.27;88.58
44531;BME280;30240;47.418;0.700;2024-01-16T18:18:23;99290.17333984375;;;0.38;88.65
44531;BME280;30240;47.418;0.700;2024-01-16T18:20:49;99291.49780273438;;;0.36;88.59
44531;BME280;30240;47.418;0.700;2024-01-16T18:23:13;99286.09619140625;;;0.36;88.59
44531;BME280;30240;47.418;0.700;2024-01-16T18:25:39;99286.09619140625;;;0.36;88.59
44531;BME280;30240;47.418;0.700;2024-01-16T18:28:04;99288.86108398438;;;0.38;88.57
44531;BME280;30240;47.418;0.700;2024-01-16T18:30:29;99284.73510742188;;;0.44;88.66
44531;BME280;30240;47.418;0.700;2024-01-16T18:32:54;99287.24975585938;;;0.38;88.6
44531;BME280;30240;47.418;0.700;2024-01-16T18:35:19;99276.7822265625;;;0.37;88.61
44531;BME280;30240;47.418;0.700;2024-01-16T18:37:44;99276.7822265625;;;0.37;88.61
44531;BME280;30240;47.418;0.700;2024-01-16T18:40:09;99275.69580078125;;;0.42;88.68
44531;BME280;30240;47.418;0.700;2024-01-16T18:42:35;99258.90502929688;;;0.47;88.6
44531;BME280;30240;47.418;0.700;2024-01-16T18:44:59;99251.123046875;;;0.47;88.59
44531;BME280;30240;47.418;0.700;2024-01-16T18:47:24;99247.96752929688;;;0.34;88.53